createdAt,value
2018-06-17T00:00:29.497Z,101707.15
2018-06-17T00:03:01.528Z,101704.13
2018-06-17T00:05:36.469Z,101702.05
2018-06-17T00:10:42.678Z,101707.20
2018-06-17T00:13:11.633Z,101704.28
2018-06-17T00:15:40.630Z,101699.89
2018-06-17T00:18:13.506Z,101701.26
2018-06-17T00:20:48.656Z,101699.13
2018-06-17T00:23:26.282Z,101689.23
2018-06-17T00:26:00.847Z,101692.62
2018-06-17T00:28:29.911Z,101690.95
2018-06-17T00:30:58.886Z,101694.88
2018-06-17T00:33:28.187Z,101690.46
2018-06-17T00:36:00.915Z,101684.84
2018-06-17T00:38:38.435Z,101690.55
2018-06-17T00:41:13.564Z,101685.70
2018-06-17T00:43:49.144Z,101693.17
2018-06-17T00:46:18.036Z,101682.74
2018-06-17T00:48:47.934Z,101672.59
2018-06-17T00:51:16.963Z,101671.34
2018-06-17T00:56:28.534Z,101671.58
2018-06-17T00:59:04.381Z,101675.36
2018-06-17T01:01:36.987Z,101687.17
2018-06-17T01:04:05.983Z,101684.14
2018-06-17T01:06:34.970Z,101677.59
2018-06-17T01:09:04.116Z,101687.69
2018-06-17T01:11:34.752Z,101674.57
2018-06-17T01:14:08.955Z,101687.69
2018-06-17T01:16:40.896Z,101688.99
2018-06-17T01:19:13.871Z,101690.80
2018-06-17T01:21:42.914Z,101690.30
2018-06-17T01:24:11.839Z,101687.69
2018-06-17T01:26:40.858Z,101693.78
2018-06-17T01:29:13.095Z,101686.92
2018-06-17T01:31:49.347Z,101686.92
2018-06-17T01:34:22.157Z,101687.86
2018-06-17T01:36:54.492Z,101677.89
2018-06-17T01:39:26.133Z,101683.53
2018-06-17T01:41:55.080Z,101676.98
2018-06-17T01:44:23.975Z,101674.36
2018-06-17T01:46:52.966Z,101676.06
2018-06-17T01:49:29.852Z,101672.12
2018-06-17T01:52:02.456Z,101673.05
2018-06-17T01:54:34.495Z,101684.45
2018-06-17T01:57:06.576Z,101686.22
2018-06-17T01:59:45.549Z,101674.91
2018-06-17T02:02:21.978Z,101683.53
2018-06-17T02:04:58.678Z,101663.47
2018-06-17T02:07:32.677Z,101670.02
2018-06-17T02:10:06.647Z,101675.73
2018-06-17T02:12:35.742Z,101673.20
2018-06-17T02:15:09.125Z,101676.22
2018-06-17T02:17:49.824Z,101678.84
2018-06-17T02:20:21.866Z,101667.03
2018-06-17T02:22:54.131Z,101661.79
2018-06-17T02:25:23.025Z,101663.25
2018-06-17T02:27:51.926Z,101672.19
2018-06-17T02:30:20.782Z,101654.29
2018-06-17T02:32:50.114Z,101655.69
2018-06-17T02:35:21.259Z,101657.00
2018-06-17T02:37:57.786Z,101616.05
2018-06-17T02:40:30.841Z,101637.45
2018-06-17T02:43:08.300Z,101636.69
2018-06-17T02:45:45.478Z,101636.39
2018-06-17T02:48:19.398Z,101626.05
2018-06-17T02:50:53.503Z,101635.38
2018-06-17T02:53:28.398Z,101657.05
2018-06-17T02:55:58.210Z,101667.14
2018-06-17T02:58:36.821Z,101672.16
2018-06-17T03:09:43.007Z,101671.75
2018-06-17T03:12:11.869Z,101670.58
2018-06-17T03:14:40.812Z,101673.60
2018-06-17T03:28:36.281Z,101664.48
2018-06-17T03:31:10.323Z,101659.34
2018-06-17T03:33:45.110Z,101667.11
2018-06-17T03:36:28.328Z,101673.06
2018-06-17T03:39:04.859Z,101666.50
2018-06-17T03:47:17.368Z,101676.59
2018-06-17T03:50:01.004Z,101683.23
2018-06-17T03:52:29.990Z,101682.46
2018-06-17T03:54:58.947Z,101685.45
2018-06-17T03:57:28.008Z,101689.38
2018-06-17T04:00:06.211Z,101692.55
2018-06-17T04:05:21.235Z,101688.22
2018-06-17T04:07:58.609Z,101684.06
2018-06-17T04:10:40.437Z,101688.54
2018-06-17T04:13:09.579Z,101683.30
2018-06-17T04:15:38.808Z,101685.13
2018-06-17T04:18:08.681Z,101679.66
2018-06-17T04:32:49.347Z,101692.81
2018-06-17T04:35:18.310Z,101695.03
2018-06-17T04:37:47.260Z,101697.25
2018-06-17T05:01:37.410Z,101687.77
2018-06-17T05:04:06.486Z,101690.11
2018-06-17T05:06:35.504Z,101686.89
2018-06-17T05:09:06.624Z,101692.81
2018-06-17T05:29:52.029Z,101683.63
2018-06-17T05:32:20.947Z,101688.33
2018-06-17T05:34:49.918Z,101686.56
2018-06-17T05:46:26.922Z,101696.27
2018-06-17T05:48:56.262Z,101701.51
2018-06-17T05:51:25.313Z,101698.52
2018-06-17T05:53:54.690Z,101707.20
2018-06-17T06:08:41.554Z,101712.32
2018-06-17T06:11:10.826Z,101715.71
2018-06-17T06:13:39.762Z,101718.27
2018-06-17T06:16:09.040Z,101726.99
2018-06-17T06:30:37.945Z,101717.13
2018-06-17T06:33:06.878Z,101719.63
2018-06-17T06:35:35.884Z,101721.16
2018-06-17T06:41:06.168Z,101723.89
2018-06-17T06:48:49.583Z,101722.42
2018-06-17T06:54:05.624Z,101718.02
2018-06-17T06:56:50.072Z,101704.65
2018-06-17T06:59:22.244Z,101712.97
2018-06-17T07:02:06.000Z,101709.58
2018-06-17T07:04:46.558Z,101705.40
2018-06-17T07:07:26.404Z,101703.47
2018-06-17T07:10:12.776Z,101698.82
2018-06-17T07:12:41.835Z,101692.41
2018-06-17T07:15:17.355Z,101689.86
2018-06-17T07:18:08.731Z,101685.11
2018-06-17T07:32:12.605Z,101680.00
2018-06-17T07:34:42.205Z,101672.91
2018-06-17T07:37:12.725Z,101688.97
2018-06-17T08:11:14.107Z,101707.29
2018-06-17T08:13:45.687Z,101704.50
2018-06-17T08:16:14.966Z,101703.48
2018-06-17T08:18:46.655Z,101694.59
2018-06-17T08:21:22.555Z,101696.06
2018-06-17T08:26:58.308Z,101708.34
2018-06-17T08:30:13.298Z,101699.80
2018-06-17T08:32:50.737Z,101702.50
2018-06-17T08:35:29.957Z,101700.98
2018-06-17T08:38:13.894Z,101703.34
2018-06-17T09:10:32.802Z,101679.67
2018-06-17T09:13:02.566Z,101677.60
2018-06-17T09:15:31.638Z,101681.08
2018-06-17T09:18:03.850Z,101674.97
2018-06-17T09:27:29.522Z,101677.59
2018-06-17T09:29:59.852Z,101681.75
2018-06-17T09:32:33.577Z,101683.72
2018-06-17T09:35:06.646Z,101679.53
2018-06-17T09:37:45.940Z,101675.03
2018-06-17T09:43:14.794Z,101663.95
2018-06-17T09:45:43.937Z,101666.86
2018-06-17T09:48:13.851Z,101664.73
2018-06-17T09:51:01.555Z,101663.78
2018-06-17T10:05:37.690Z,101654.67
2018-06-17T10:08:06.739Z,101652.23
2018-06-17T10:10:54.869Z,101649.14
2018-06-17T10:22:32.420Z,101639.12
2018-06-17T10:25:01.833Z,101638.85
2018-06-17T10:27:31.197Z,101639.81
2018-06-17T10:42:11.574Z,101626.13
2018-06-17T10:44:41.031Z,101622.86
2018-06-17T10:47:10.217Z,101625.59
2018-06-17T11:02:01.033Z,101604.66
2018-06-17T11:04:30.204Z,101593.37
2018-06-17T11:06:59.853Z,101595.36
2018-06-17T11:21:39.826Z,101591.97
2018-06-17T11:24:08.859Z,101585.36
2018-06-17T11:26:39.015Z,101587.80
2018-06-17T11:41:20.573Z,101584.30
2018-06-17T11:43:49.521Z,101575.24
2018-06-17T11:46:19.922Z,101581.91
2018-06-17T12:03:57.526Z,101564.33
2018-06-17T12:06:26.662Z,101573.13
2018-06-17T12:08:56.175Z,101575.21
2018-06-17T12:20:36.333Z,101568.48
2018-06-17T12:23:05.427Z,101566.39
2018-06-17T12:25:34.512Z,101566.39
2018-06-17T12:28:05.819Z,101565.58
2018-06-17T12:43:23.972Z,101562.87
2018-06-17T12:46:08.772Z,101572.56
2018-06-17T13:06:42.822Z,101590.20
2018-06-17T13:09:13.016Z,101595.75
2018-06-17T13:26:59.966Z,101621.02
2018-06-17T13:29:32.939Z,101643.89
2018-06-17T13:32:02.203Z,101638.25
2018-06-17T13:49:36.569Z,101655.63
2018-06-17T13:52:08.542Z,101647.92
2018-06-17T13:54:54.569Z,101655.60
2018-06-17T14:09:35.590Z,101635.58
2018-06-17T14:12:04.753Z,101657.88
2018-06-17T14:14:34.047Z,101663.14
2018-06-17T14:32:16.442Z,101620.00
2018-06-17T14:34:45.431Z,101623.86
2018-06-17T14:37:16.486Z,101628.27
2018-06-17T14:49:18.769Z,101619.70
2018-06-17T14:56:56.331Z,101628.08
2018-06-17T14:59:25.313Z,101646.14
2018-06-17T15:01:57.034Z,101645.85
2018-06-17T15:04:35.454Z,101634.47
2018-06-17T15:07:17.644Z,101643.87
2018-06-17T15:09:50.942Z,101632.52
2018-06-17T15:12:25.642Z,101643.05
2018-06-17T15:15:01.355Z,101627.52
2018-06-17T15:17:35.195Z,101626.66
2018-06-17T15:20:05.087Z,101625.84
2018-06-17T15:22:33.911Z,101623.10
2018-06-17T15:25:03.116Z,101626.30
2018-06-17T15:27:32.588Z,101627.16
2018-06-17T15:30:10.552Z,101624.88
2018-06-17T15:32:44.879Z,101624.80
2018-06-17T15:35:21.296Z,101638.05
2018-06-17T15:37:55.351Z,101634.27
2018-06-17T15:40:29.209Z,101647.83
2018-06-17T15:42:58.126Z,101647.83
2018-06-17T15:54:17.157Z,101626.85
2018-06-17T15:56:46.321Z,101630.52
2018-06-17T15:59:15.332Z,101645.17
2018-06-17T16:04:40.964Z,101641.52
2018-06-17T16:25:58.294Z,101678.51
2018-06-17T16:28:27.974Z,101682.53
2018-06-17T16:30:57.078Z,101677.27
2018-06-17T16:33:25.906Z,101680.53
2018-06-17T16:35:54.970Z,101676.70
2018-06-17T16:47:19.779Z,101689.80
2018-06-17T16:49:48.566Z,101693.36
2018-06-17T16:52:22.626Z,101698.72
2018-06-17T17:03:49.451Z,101697.63
2018-06-17T17:06:18.403Z,101686.24
2018-06-17T17:08:47.443Z,101685.78
2018-06-17T17:11:21.671Z,101687.17
2018-06-17T17:22:51.683Z,101687.69
2018-06-17T17:25:21.811Z,101699.17
2018-06-17T17:27:52.488Z,101706.49
2018-06-17T17:42:34.082Z,101705.05
2018-06-17T17:45:07.113Z,101707.28
2018-06-17T17:47:36.375Z,101723.52
2018-06-17T18:05:26.729Z,101718.31
2018-06-17T18:07:56.702Z,101729.32
2018-06-17T18:10:26.249Z,101719.14
2018-06-17T18:25:29.096Z,101727.53
2018-06-17T18:28:03.669Z,101728.64
2018-06-17T18:30:37.756Z,101728.25
2018-06-17T18:51:24.700Z,101746.95
2018-06-17T18:53:54.618Z,101753.05
2018-06-17T18:56:34.105Z,101739.42
2018-06-17T19:08:17.650Z,101753.05
2018-06-17T19:12:56.332Z,101767.02
2018-06-17T22:34:20.708Z,101908.12
2018-06-17T23:26:35.902Z,101895.82
2018-06-17T23:51:14.590Z,101924.70
